createdAt,value
2023-02-19T00:01:23.774Z,18.48
2023-02-19T00:03:55.945Z,18.77
2023-02-19T00:06:24.468Z,19.38
2023-02-19T00:08:50.908Z,18.92
2023-02-19T00:11:23.328Z,18.92
2023-02-19T00:13:52.412Z,18.70
2023-02-19T00:16:22.466Z,20.40
2023-02-19T00:18:49.297Z,19.98
2023-02-19T00:21:16.760Z,20.98
2023-02-19T00:23:43.705Z,22.98
2023-02-19T00:26:18.245Z,21.60
2023-02-19T00:28:49.026Z,22.60
2023-02-19T00:31:27.641Z,23.08
2023-02-19T00:33:57.580Z,21.00
2023-02-19T00:36:25.047Z,21.58
2023-02-19T00:38:51.996Z,21.77
2023-02-19T00:41:20.334Z,23.92
2023-02-19T00:43:58.614Z,24.42
2023-02-19T00:46:29.750Z,26.15
2023-02-19T00:48:56.940Z,25.13
2023-02-19T00:51:25.921Z,25.70
2023-02-19T00:53:52.623Z,25.38
2023-02-19T00:56:19.771Z,24.65
2023-02-19T00:58:48.241Z,26.45
2023-02-19T01:01:15.048Z,23.42
2023-02-19T01:03:42.327Z,24.52
2023-02-19T01:06:11.260Z,25.15
2023-02-19T01:08:37.808Z,28.17
2023-02-19T01:11:06.075Z,29.02
2023-02-19T01:13:33.407Z,28.88
2023-02-19T01:16:05.395Z,25.77
2023-02-19T01:18:32.459Z,24.35
2023-02-19T01:20:58.909Z,28.92
2023-02-19T01:23:25.659Z,27.90
2023-02-19T01:25:52.074Z,24.88
2023-02-19T01:28:18.498Z,28.67
2023-02-19T01:30:45.017Z,27.55
2023-02-19T01:33:11.469Z,23.45
2023-02-19T01:35:39.386Z,26.33
2023-02-19T01:38:08.260Z,22.92
2023-02-19T01:40:35.528Z,27.13
2023-02-19T01:43:03.671Z,23.90
2023-02-19T01:45:35.417Z,24.23
2023-02-19T01:48:07.818Z,24.00
2023-02-19T01:50:43.684Z,24.92
2023-02-19T01:53:14.418Z,24.05
2023-02-19T01:55:41.065Z,25.85
2023-02-19T01:58:09.285Z,27.17
2023-02-19T02:00:37.832Z,22.95
2023-02-19T02:03:05.021Z,23.52
2023-02-19T02:05:41.504Z,22.75
2023-02-19T02:08:26.768Z,20.52
2023-02-19T02:10:53.867Z,23.02
2023-02-19T02:13:20.860Z,21.27
2023-02-19T02:16:04.633Z,20.05
2023-02-19T02:18:43.894Z,19.67
2023-02-19T02:21:32.053Z,18.95
2023-02-19T02:24:04.747Z,18.30
2023-02-19T02:27:09.426Z,17.33
2023-02-19T02:29:39.006Z,18.20
2023-02-19T02:32:12.395Z,17.40
2023-02-19T02:34:56.189Z,18.70
2023-02-19T02:37:25.579Z,16.92
2023-02-19T02:39:53.667Z,15.98
2023-02-19T02:42:27.626Z,18.23
2023-02-19T02:45:35.197Z,15.43
2023-02-19T02:48:34.355Z,20.08
2023-02-19T02:51:19.909Z,17.05
2023-02-19T02:54:24.517Z,16.27
2023-02-19T02:56:52.556Z,18.58
2023-02-19T02:59:23.548Z,16.50
2023-02-19T03:02:10.822Z,15.68
2023-02-19T03:05:33.344Z,15.73
2023-02-19T03:08:14.657Z,14.60
2023-02-19T03:10:58.390Z,15.88
2023-02-19T03:13:51.269Z,14.75
2023-02-19T03:16:45.217Z,14.70
2023-02-19T03:19:21.626Z,14.02
2023-02-19T03:21:55.504Z,12.88
2023-02-19T03:24:48.242Z,13.30
2023-02-19T03:27:16.797Z,13.15
2023-02-19T03:29:50.195Z,14.63
2023-02-19T03:32:31.482Z,13.18
2023-02-19T03:35:23.549Z,12.00
2023-02-19T03:38:04.776Z,12.18
2023-02-19T03:40:41.495Z,10.60
2023-02-19T03:43:19.494Z,9.38
2023-02-19T03:46:14.112Z,12.18
2023-02-19T03:48:51.933Z,10.52
2023-02-19T03:51:32.219Z,8.50
2023-02-19T03:54:13.261Z,9.02
2023-02-19T03:56:53.162Z,8.32
2023-02-19T03:59:43.709Z,9.00
2023-02-19T04:02:14.842Z,8.93
2023-02-19T04:04:50.863Z,7.43
2023-02-19T04:07:17.814Z,8.43
2023-02-19T04:09:48.965Z,8.65
2023-02-19T04:12:20.546Z,8.50
2023-02-19T04:15:02.208Z,8.95
2023-02-19T04:17:36.392Z,6.55
2023-02-19T04:20:07.796Z,8.43
2023-02-19T04:22:36.836Z,9.18
2023-02-19T04:25:03.886Z,6.63
2023-02-19T04:27:30.465Z,8.65
2023-02-19T04:29:57.121Z,8.45
2023-02-19T04:32:23.589Z,7.80
2023-02-19T04:34:52.245Z,8.63
2023-02-19T04:37:19.815Z,9.02
2023-02-19T04:39:46.264Z,9.70
2023-02-19T04:42:12.694Z,7.22
2023-02-19T04:44:39.453Z,9.07
2023-02-19T04:47:05.955Z,9.90
2023-02-19T04:49:32.420Z,8.52
2023-02-19T04:51:58.893Z,6.47
2023-02-19T04:54:25.400Z,9.88
2023-02-19T04:56:51.825Z,8.90
2023-02-19T04:59:18.469Z,9.98
2023-02-19T05:01:44.996Z,9.50
2023-02-19T05:04:11.540Z,9.73
2023-02-19T05:06:38.115Z,7.93
2023-02-19T05:09:04.629Z,8.55
2023-02-19T05:11:31.042Z,8.45
2023-02-19T05:13:57.601Z,8.75
2023-02-19T05:16:24.086Z,9.07
2023-02-19T05:18:51.083Z,9.32
2023-02-19T05:21:19.295Z,6.90
2023-02-19T05:23:45.773Z,6.43
2023-02-19T05:26:18.541Z,7.30
2023-02-19T05:28:52.962Z,9.55
2023-02-19T05:31:20.736Z,8.63
2023-02-19T05:33:50.906Z,10.30
2023-02-19T05:36:19.106Z,7.93
2023-02-19T05:38:45.786Z,7.65
2023-02-19T05:41:17.690Z,7.82
2023-02-19T05:43:46.076Z,9.77
2023-02-19T05:46:15.936Z,6.35
2023-02-19T05:48:43.213Z,9.32
2023-02-19T05:51:12.522Z,7.50
2023-02-19T05:53:40.143Z,7.53
2023-02-19T05:56:33.126Z,7.80
2023-02-19T05:59:03.875Z,7.22
2023-02-19T06:01:31.144Z,9.23
2023-02-19T06:03:58.140Z,7.20
2023-02-19T06:06:25.963Z,9.68
2023-02-19T06:08:53.091Z,9.75
2023-02-19T06:11:20.254Z,9.75
2023-02-19T06:13:46.727Z,11.90
2023-02-19T06:16:13.732Z,11.32
2023-02-19T06:18:41.212Z,7.30
2023-02-19T06:21:10.145Z,9.02
2023-02-19T06:23:38.205Z,9.75
2023-02-19T06:26:07.247Z,11.60
2023-02-19T06:28:33.692Z,9.98
2023-02-19T06:31:00.198Z,9.52
2023-02-19T06:33:28.202Z,11.25
2023-02-19T06:35:54.891Z,8.95
2023-02-19T06:38:21.606Z,10.48
2023-02-19T06:40:48.039Z,11.10
2023-02-19T06:43:14.466Z,8.55
2023-02-19T06:45:41.359Z,9.18
2023-02-19T06:48:07.794Z,8.13
2023-02-19T06:50:34.231Z,8.23
2023-02-19T06:53:00.666Z,8.98
2023-02-19T06:55:27.312Z,7.32
2023-02-19T06:57:53.806Z,7.53
2023-02-19T07:00:20.333Z,9.65
2023-02-19T07:02:46.756Z,9.43
2023-02-19T07:05:13.160Z,10.02
2023-02-19T07:07:39.632Z,12.65
2023-02-19T07:10:06.362Z,9.27
2023-02-19T07:12:32.778Z,10.90
2023-02-19T07:14:59.224Z,9.82
2023-02-19T07:17:25.703Z,6.78
2023-02-19T07:19:52.605Z,10.35
2023-02-19T07:22:19.044Z,9.68
2023-02-19T07:24:47.796Z,10.98
2023-02-19T07:27:14.451Z,11.48
2023-02-19T07:29:40.891Z,7.82
2023-02-19T07:32:07.704Z,9.60
2023-02-19T07:34:34.143Z,12.93
2023-02-19T07:37:00.788Z,13.70
2023-02-19T07:39:27.312Z,11.45
2023-02-19T07:41:53.716Z,12.25
2023-02-19T07:44:26.522Z,10.23
2023-02-19T07:46:52.926Z,12.20
2023-02-19T07:49:19.362Z,12.88
2023-02-19T07:51:45.802Z,12.88
2023-02-19T07:54:12.452Z,11.63
2023-02-19T07:56:39.183Z,11.27
2023-02-19T07:59:05.628Z,12.48
2023-02-19T08:01:50.977Z,10.65
2023-02-19T08:04:17.400Z,13.45
2023-02-19T08:06:43.887Z,16.98
2023-02-19T08:09:11.290Z,9.35
2023-02-19T08:11:56.803Z,15.90
2023-02-19T08:14:27.322Z,15.02
2023-02-19T08:16:54.270Z,13.75
2023-02-19T08:19:21.114Z,10.15
2023-02-19T08:21:47.573Z,11.82
2023-02-19T08:24:14.010Z,11.02
2023-02-19T08:26:40.437Z,11.88
2023-02-19T08:29:07.122Z,8.55
2023-02-19T08:31:34.621Z,13.45
2023-02-19T08:34:01.316Z,12.98
2023-02-19T08:36:27.917Z,7.90
2023-02-19T08:38:54.496Z,10.35
2023-02-19T08:41:20.940Z,13.57
2023-02-19T08:43:47.410Z,11.00
2023-02-19T08:46:13.963Z,10.60
2023-02-19T08:48:40.600Z,8.20
2023-02-19T08:51:10.391Z,11.23
2023-02-19T08:53:39.078Z,13.00
2023-02-19T08:56:11.779Z,13.35
2023-02-19T08:58:38.529Z,11.80
2023-02-19T09:01:12.711Z,12.70
2023-02-19T09:03:39.663Z,11.88
2023-02-19T09:06:06.414Z,14.48
2023-02-19T09:08:32.968Z,12.48
2023-02-19T09:11:04.539Z,15.02
2023-02-19T09:13:31.058Z,9.98
2023-02-19T09:15:57.809Z,12.65
2023-02-19T09:18:25.751Z,13.48
2023-02-19T09:20:52.670Z,11.73
2023-02-19T09:23:19.132Z,12.27
2023-02-19T09:25:45.641Z,15.00
2023-02-19T09:28:12.118Z,11.88
2023-02-19T09:30:38.620Z,9.30
2023-02-19T09:33:06.049Z,11.38
2023-02-19T09:35:32.594Z,12.73
2023-02-19T09:38:01.863Z,11.70
2023-02-19T09:40:30.292Z,12.85
2023-02-19T09:42:57.028Z,10.45
2023-02-19T09:45:26.112Z,15.93
2023-02-19T09:47:57.916Z,18.58
2023-02-19T09:50:41.099Z,10.55
2023-02-19T09:53:25.252Z,12.82
2023-02-19T09:55:52.970Z,10.02
2023-02-19T09:58:45.662Z,10.32
2023-02-19T10:01:13.449Z,20.10
2023-02-19T10:03:43.638Z,14.27
2023-02-19T10:06:20.416Z,9.88
2023-02-19T10:08:49.037Z,12.95
2023-02-19T10:11:16.107Z,11.38
2023-02-19T10:14:00.929Z,10.85
2023-02-19T10:16:28.985Z,7.53
2023-02-19T10:18:56.592Z,11.35
2023-02-19T10:21:27.964Z,15.75
2023-02-19T10:24:00.361Z,8.70
2023-02-19T10:26:27.494Z,10.25
2023-02-19T10:28:55.422Z,10.57
2023-02-19T10:31:25.274Z,11.93
2023-02-19T10:33:57.926Z,8.98
2023-02-19T10:36:30.621Z,8.48
2023-02-19T10:39:00.769Z,13.07
2023-02-19T10:41:28.725Z,9.68
2023-02-19T10:43:58.227Z,11.70
2023-02-19T10:46:28.289Z,9.43
2023-02-19T10:49:06.556Z,10.98
2023-02-19T10:51:36.993Z,7.43
2023-02-19T10:54:05.375Z,15.15
2023-02-19T10:56:33.624Z,11.95
2023-02-19T10:59:21.116Z,13.15
2023-02-19T11:02:18.267Z,7.10
2023-02-19T11:05:05.608Z,13.10
2023-02-19T11:07:32.888Z,11.05
2023-02-19T11:10:00.143Z,9.02
2023-02-19T11:12:31.858Z,6.18
2023-02-19T11:15:11.597Z,7.50
2023-02-19T11:17:38.802Z,6.30
2023-02-19T11:20:14.887Z,10.00
2023-02-19T11:22:49.124Z,6.40
2023-02-19T11:25:16.323Z,6.80
2023-02-19T11:28:04.081Z,8.18
2023-02-19T11:30:32.325Z,6.50
2023-02-19T11:33:20.992Z,5.90
2023-02-19T11:36:08.922Z,8.45
2023-02-19T11:38:35.506Z,6.53
2023-02-19T11:41:36.656Z,5.93
2023-02-19T11:44:30.051Z,5.32
2023-02-19T11:47:23.073Z,6.82
2023-02-19T11:50:28.524Z,6.03
2023-02-19T11:53:29.486Z,5.70
2023-02-19T11:56:14.141Z,7.25
2023-02-19T11:59:05.289Z,10.27
2023-02-19T12:01:44.180Z,10.73
2023-02-19T12:04:37.743Z,5.65
2023-02-19T12:07:15.923Z,7.17
2023-02-19T12:10:25.179Z,7.45
2023-02-19T12:13:10.126Z,8.23
2023-02-19T12:16:09.772Z,9.63
2023-02-19T12:19:08.233Z,6.40
2023-02-19T12:22:14.960Z,6.38
2023-02-19T12:25:29.423Z,4.07
2023-02-19T12:28:10.102Z,5.20
2023-02-19T12:31:13.928Z,5.38
2023-02-19T12:33:46.508Z,6.50
2023-02-19T12:36:26.529Z,7.75
2023-02-19T12:39:11.200Z,9.30
2023-02-19T12:41:50.016Z,8.65
2023-02-19T12:44:34.665Z,11.25
2023-02-19T12:47:06.456Z,5.53
2023-02-19T12:49:40.896Z,6.22
2023-02-19T12:52:16.581Z,3.90
2023-02-19T12:54:47.770Z,11.02
2023-02-19T12:57:20.789Z,6.15
2023-02-19T13:00:07.747Z,6.63
2023-02-19T13:02:44.222Z,8.05
2023-02-19T13:05:42.106Z,7.35
2023-02-19T13:09:07.352Z,5.85
2023-02-19T13:11:58.299Z,6.22
2023-02-19T13:14:30.684Z,7.25
2023-02-19T13:17:21.245Z,6.28
2023-02-19T13:19:52.440Z,4.40
2023-02-19T13:22:56.033Z,6.78
2023-02-19T13:25:28.083Z,8.30
2023-02-19T13:28:08.378Z,5.63
2023-02-19T13:31:03.530Z,7.40
2023-02-19T13:33:42.218Z,6.65
2023-02-19T13:36:12.557Z,2.92
2023-02-19T13:38:44.126Z,6.15
2023-02-19T13:41:19.846Z,7.32
2023-02-19T13:43:54.084Z,5.70
2023-02-19T13:46:20.725Z,6.82
2023-02-19T13:48:47.196Z,5.85
2023-02-19T13:51:21.560Z,4.13
2023-02-19T13:53:48.157Z,7.85
2023-02-19T13:56:30.065Z,6.60
2023-02-19T13:58:57.927Z,4.50
2023-02-19T14:01:58.780Z,8.55
2023-02-19T14:04:40.887Z,3.25
2023-02-19T14:07:07.358Z,4.68
2023-02-19T14:09:45.891Z,5.18
2023-02-19T14:12:16.271Z,7.05
2023-02-19T14:14:46.742Z,7.95
2023-02-19T14:17:38.267Z,8.25
2023-02-19T14:20:17.046Z,3.45
2023-02-19T14:22:47.720Z,3.70
2023-02-19T14:25:38.225Z,4.38
2023-02-19T14:28:10.635Z,6.75
2023-02-19T14:31:00.883Z,5.38
2023-02-19T14:33:34.071Z,8.38
2023-02-19T14:36:13.963Z,5.53
2023-02-19T14:39:11.919Z,3.67
2023-02-19T14:41:41.501Z,5.20
2023-02-19T14:44:34.055Z,3.95
2023-02-19T14:47:05.875Z,4.95
2023-02-19T14:49:47.944Z,6.40
2023-02-19T14:52:36.669Z,7.38
2023-02-19T14:55:13.507Z,8.65
2023-02-19T14:57:43.040Z,8.93
2023-02-19T15:00:22.065Z,7.82
2023-02-19T15:02:55.604Z,5.35
2023-02-19T15:05:26.323Z,5.15
2023-02-19T15:07:55.409Z,7.03
2023-02-19T15:10:22.518Z,7.03
2023-02-19T15:12:56.047Z,5.18
2023-02-19T15:15:36.384Z,6.38
2023-02-19T15:18:04.925Z,5.13
2023-02-19T15:20:36.909Z,5.50
2023-02-19T15:23:06.565Z,8.50
2023-02-19T15:25:35.773Z,3.67
2023-02-19T15:28:24.340Z,5.50
2023-02-19T15:30:56.828Z,6.63
2023-02-19T15:33:23.423Z,7.40
2023-02-19T15:35:56.124Z,6.80
2023-02-19T15:38:22.833Z,10.48
2023-02-19T15:40:49.818Z,5.63
2023-02-19T15:43:27.612Z,8.85
2023-02-19T15:45:59.185Z,13.18
2023-02-19T15:48:39.718Z,13.55
2023-02-19T15:51:14.294Z,11.27
2023-02-19T15:53:47.853Z,9.18
2023-02-19T15:56:28.058Z,8.98
2023-02-19T15:59:01.024Z,11.70
2023-02-19T16:01:30.266Z,9.55
2023-02-19T16:03:58.425Z,12.57
2023-02-19T16:06:26.400Z,11.20
2023-02-19T16:08:52.800Z,8.05
2023-02-19T16:11:22.302Z,9.30
2023-02-19T16:13:50.593Z,8.35
2023-02-19T16:16:29.798Z,6.57
2023-02-19T16:18:57.027Z,6.07
2023-02-19T16:21:26.894Z,6.90
2023-02-19T16:24:11.754Z,5.95
2023-02-19T16:26:43.161Z,9.00
2023-02-19T16:29:25.396Z,8.40
2023-02-19T16:31:55.520Z,6.03
2023-02-19T16:34:41.525Z,6.53
2023-02-19T16:37:30.014Z,6.40
2023-02-19T16:40:34.748Z,8.48
2023-02-19T16:43:03.937Z,8.70
2023-02-19T16:45:30.760Z,5.90
2023-02-19T16:47:57.611Z,6.10
2023-02-19T16:50:26.771Z,6.85
2023-02-19T16:52:59.470Z,7.55
2023-02-19T16:55:27.251Z,7.45
2023-02-19T16:57:54.349Z,11.95
2023-02-19T17:00:31.858Z,9.07
2023-02-19T17:03:02.430Z,8.90
2023-02-19T17:05:32.254Z,9.00
2023-02-19T17:07:58.729Z,12.38
2023-02-19T17:10:27.555Z,9.98
2023-02-19T17:12:55.156Z,9.07
2023-02-19T17:15:22.634Z,9.90
2023-02-19T17:17:49.223Z,8.52
2023-02-19T17:20:15.603Z,11.82
2023-02-19T17:22:42.401Z,7.90
2023-02-19T17:25:09.184Z,7.95
2023-02-19T17:27:35.926Z,10.85
2023-02-19T17:30:02.859Z,17.98
2023-02-19T17:32:31.992Z,8.32
2023-02-19T17:34:58.736Z,9.88
2023-02-19T17:37:25.139Z,9.25
2023-02-19T17:39:51.901Z,9.35
2023-02-19T17:42:18.790Z,10.88
2023-02-19T17:44:46.660Z,8.40
2023-02-19T17:47:13.281Z,10.05
2023-02-19T17:49:39.743Z,9.98
2023-02-19T17:52:06.621Z,7.07
2023-02-19T17:54:34.217Z,11.38
2023-02-19T17:57:00.687Z,6.70
2023-02-19T17:59:27.152Z,7.22
2023-02-19T18:01:53.651Z,8.48
2023-02-19T18:04:20.624Z,8.73
2023-02-19T18:06:48.080Z,8.55
2023-02-19T18:09:17.966Z,9.77
2023-02-19T18:11:46.278Z,8.40
2023-02-19T18:14:12.729Z,8.85
2023-02-19T18:16:50.035Z,8.93
2023-02-19T18:19:17.117Z,8.82
2023-02-19T18:21:43.563Z,9.80
2023-02-19T18:24:09.980Z,7.20
2023-02-19T18:26:36.470Z,7.82
2023-02-19T18:29:02.977Z,10.48
2023-02-19T18:31:32.739Z,8.02
2023-02-19T18:33:59.457Z,8.55
2023-02-19T18:36:25.956Z,6.80
2023-02-19T18:38:52.374Z,8.60
2023-02-19T18:41:21.067Z,12.80
2023-02-19T18:43:48.945Z,13.48
2023-02-19T18:46:15.950Z,12.57
2023-02-19T18:48:42.827Z,9.98
2023-02-19T18:51:10.923Z,14.70
2023-02-19T18:53:37.671Z,10.70
2023-02-19T18:56:05.328Z,11.98
2023-02-19T18:58:31.899Z,12.65
2023-02-19T19:00:59.427Z,11.95
2023-02-19T19:03:26.001Z,10.50
2023-02-19T19:05:52.657Z,9.30
2023-02-19T19:08:19.057Z,8.77
2023-02-19T19:10:45.506Z,10.88
2023-02-19T19:13:11.989Z,8.57
2023-02-19T19:15:41.261Z,11.45
2023-02-19T19:18:08.965Z,10.35
2023-02-19T19:20:35.500Z,12.55
2023-02-19T19:23:02.367Z,12.00
2023-02-19T19:25:28.781Z,11.30
2023-02-19T19:27:55.836Z,9.65
2023-02-19T19:30:22.476Z,16.27
2023-02-19T19:32:50.269Z,10.23
2023-02-19T19:35:18.005Z,10.20
2023-02-19T19:37:45.015Z,12.25
2023-02-19T19:40:11.959Z,9.05
2023-02-19T19:42:39.126Z,10.25
2023-02-19T19:45:06.113Z,11.65
2023-02-19T19:47:32.599Z,11.40
2023-02-19T19:49:59.062Z,10.25
2023-02-19T19:52:25.705Z,9.40
2023-02-19T19:54:54.061Z,8.75
2023-02-19T19:57:20.841Z,8.20
2023-02-19T19:59:51.246Z,8.90
2023-02-19T20:02:18.239Z,9.20
2023-02-19T20:04:44.792Z,11.93
2023-02-19T20:07:11.255Z,7.22
2023-02-19T20:09:37.709Z,9.80
2023-02-19T20:12:04.937Z,10.82
2023-02-19T20:14:31.459Z,7.70
2023-02-19T20:16:58.307Z,9.88
2023-02-19T20:19:24.905Z,9.32
2023-02-19T20:21:53.340Z,7.40
2023-02-19T20:24:28.416Z,7.38
2023-02-19T20:26:58.602Z,9.25
2023-02-19T20:29:30.424Z,7.47
2023-02-19T20:32:02.388Z,7.63
2023-02-19T20:34:29.799Z,7.93
2023-02-19T20:36:56.240Z,9.63
2023-02-19T20:39:22.839Z,7.47
2023-02-19T20:41:51.929Z,7.30
2023-02-19T20:44:19.792Z,5.55
2023-02-19T20:46:49.284Z,7.80
2023-02-19T20:49:18.149Z,9.90
2023-02-19T20:51:54.722Z,8.05
2023-02-19T20:54:23.718Z,9.45
2023-02-19T20:56:52.969Z,8.25
2023-02-19T20:59:21.761Z,7.40
2023-02-19T21:01:49.116Z,7.80
2023-02-19T21:04:17.579Z,8.73
2023-02-19T21:06:44.060Z,10.43
2023-02-19T21:09:10.656Z,9.43
2023-02-19T21:11:37.159Z,5.38
2023-02-19T21:14:03.628Z,5.60
2023-02-19T21:16:31.906Z,6.93
2023-02-19T21:18:58.968Z,8.27
2023-02-19T21:21:26.247Z,7.35
2023-02-19T21:23:57.479Z,13.20
2023-02-19T21:26:25.234Z,9.07
2023-02-19T21:28:52.465Z,9.45
2023-02-19T21:31:23.886Z,7.85
2023-02-19T21:33:51.752Z,8.50
2023-02-19T21:36:18.638Z,8.77
2023-02-19T21:38:45.074Z,7.75
2023-02-19T21:41:11.505Z,8.57
2023-02-19T21:43:37.914Z,9.70
2023-02-19T21:46:04.563Z,8.57
2023-02-19T21:48:30.988Z,8.30
2023-02-19T21:50:57.436Z,7.25
2023-02-19T21:53:23.891Z,7.80
2023-02-19T21:55:58.217Z,9.02
2023-02-19T21:58:25.905Z,8.90
2023-02-19T22:00:53.878Z,6.50
2023-02-19T22:03:20.470Z,7.40
2023-02-19T22:05:46.891Z,8.43
2023-02-19T22:08:15.517Z,7.28
2023-02-19T22:10:42.473Z,10.05
2023-02-19T22:13:09.722Z,7.72
2023-02-19T22:15:36.870Z,10.25
2023-02-19T22:18:03.635Z,8.80
2023-02-19T22:20:30.079Z,8.82
2023-02-19T22:22:56.497Z,7.28
2023-02-19T22:25:22.945Z,10.43
2023-02-19T22:27:49.423Z,7.35
2023-02-19T22:30:16.154Z,6.22
2023-02-19T22:32:42.775Z,8.07
2023-02-19T22:35:09.234Z,9.80
2023-02-19T22:37:35.658Z,10.45
2023-02-19T22:40:02.090Z,8.93
2023-02-19T22:42:29.336Z,8.50
2023-02-19T22:44:55.924Z,7.78
2023-02-19T22:47:22.415Z,8.27
2023-02-19T22:49:48.971Z,12.40
2023-02-19T22:52:15.515Z,7.47
2023-02-19T22:54:41.987Z,7.95
2023-02-19T22:57:08.404Z,8.35
2023-02-19T22:59:34.932Z,9.82
2023-02-19T23:02:01.732Z,8.52
2023-02-19T23:04:28.204Z,8.13
2023-02-19T23:06:54.943Z,8.00
2023-02-19T23:09:24.678Z,9.95
2023-02-19T23:11:52.100Z,8.65
2023-02-19T23:14:21.448Z,9.68
2023-02-19T23:16:47.958Z,9.30
2023-02-19T23:19:15.633Z,7.38
2023-02-19T23:21:44.073Z,11.70
2023-02-19T23:24:11.655Z,7.70
2023-02-19T23:26:43.331Z,6.95
2023-02-19T23:29:09.763Z,7.47
2023-02-19T23:31:36.253Z,8.68
2023-02-19T23:34:02.735Z,10.45
2023-02-19T23:36:29.456Z,7.80
2023-02-19T23:38:55.973Z,8.63
2023-02-19T23:41:22.453Z,7.07
2023-02-19T23:43:49.269Z,7.63
2023-02-19T23:46:17.772Z,8.70
2023-02-19T23:48:45.559Z,6.40
2023-02-19T23:51:12.078Z,11.35
2023-02-19T23:53:38.565Z,8.68
2023-02-19T23:56:05.662Z,9.10
2023-02-19T23:58:32.141Z,7.18
